sensor_id;sensor_type;location;lat;lon;timestamp;P1;durP1;ratioP1;P2;durP2;ratioP2
7021;SDS011;3552;42.664;23.406;2022-12-18T00:00:48;8.70;;;6.23;;
7021;SDS011;3552;42.664;23.406;2022-12-18T00:03:15;10.43;;;6.67;;
7021;SDS011;3552;42.664;23.406;2022-12-18T00:05:46;8.70;;;5.97;;
7021;SDS011;3552;42.664;23.406;2022-12-18T00:08:13;11.03;;;6.87;;
7021;SDS011;3552;42.664;23.406;2022-12-18T00:10:41;8.80;;;6.13;;
7021;SDS011;3552;42.664;23.406;2022-12-18T00:13:11;10.33;;;6.23;;
7021;SDS011;3552;42.664;23.406;2022-12-18T00:15:38;9.13;;;6.27;;
7021;SDS011;3552;42.664;23.406;2022-12-18T00:18:07;8.43;;;5.87;;
7021;SDS011;3552;42.664;23.406;2022-12-18T00:20:35;9.33;;;5.80;;
7021;SDS011;3552;42.664;23.406;2022-12-18T00:23:03;9.77;;;5.80;;
7021;SDS011;3552;42.664;23.406;2022-12-18T00:25:32;9.27;;;6.43;;
7021;SDS011;3552;42.664;23.406;2022-12-18T00:28:00;10.13;;;6.43;;
7021;SDS011;3552;42.664;23.406;2022-12-18T00:30:28;10.13;;;6.63;;
7021;SDS011;3552;42.664;23.406;2022-12-18T00:32:59;10.83;;;6.93;;
7021;SDS011;3552;42.664;23.406;2022-12-18T00:35:26;12.27;;;6.60;;
7021;SDS011;3552;42.664;23.406;2022-12-18T00:37:54;10.60;;;6.40;;
7021;SDS011;3552;42.664;23.406;2022-12-18T00:40:21;9.90;;;6.90;;
7021;SDS011;3552;42.664;23.406;2022-12-18T00:42:49;12.93;;;6.73;;
7021;SDS011;3552;42.664;23.406;2022-12-18T00:45:21;11.20;;;7.40;;
7021;SDS011;3552;42.664;23.406;2022-12-18T00:47:51;10.80;;;6.40;;
7021;SDS011;3552;42.664;23.406;2022-12-18T00:50:18;9.27;;;6.67;;
7021;SDS011;3552;42.664;23.406;2022-12-18T00:52:45;11.57;;;6.03;;
7021;SDS011;3552;42.664;23.406;2022-12-18T00:55:12;10.23;;;6.57;;
7021;SDS011;3552;42.664;23.406;2022-12-18T00:57:39;9.17;;;5.90;;
7021;SDS011;3552;42.664;23.406;2022-12-18T01:00:09;10.10;;;6.70;;
7021;SDS011;3552;42.664;23.406;2022-12-18T01:02:37;8.97;;;5.47;;
7021;SDS011;3552;42.664;23.406;2022-12-18T01:05:07;8.50;;;5.77;;
7021;SDS011;3552;42.664;23.406;2022-12-18T01:07:34;10.13;;;5.73;;
7021;SDS011;3552;42.664;23.406;2022-12-18T01:10:01;9.63;;;6.47;;
7021;SDS011;3552;42.664;23.406;2022-12-18T01:12:28;10.63;;;5.90;;
7021;SDS011;3552;42.664;23.406;2022-12-18T01:14:55;10.20;;;6.63;;
7021;SDS011;3552;42.664;23.406;2022-12-18T01:17:23;9.07;;;6.17;;
7021;SDS011;3552;42.664;23.406;2022-12-18T01:19:49;9.70;;;6.77;;
7021;SDS011;3552;42.664;23.406;2022-12-18T01:22:19;10.47;;;6.33;;
7021;SDS011;3552;42.664;23.406;2022-12-18T01:24:46;9.20;;;6.17;;
7021;SDS011;3552;42.664;23.406;2022-12-18T01:27:13;11.77;;;5.77;;
7021;SDS011;3552;42.664;23.406;2022-12-18T01:29:41;14.47;;;6.37;;
7021;SDS011;3552;42.664;23.406;2022-12-18T01:32:08;10.70;;;6.00;;
7021;SDS011;3552;42.664;23.406;2022-12-18T01:34:35;10.63;;;7.00;;
7021;SDS011;3552;42.664;23.406;2022-12-18T01:37:03;11.43;;;7.47;;
7021;SDS011;3552;42.664;23.406;2022-12-18T01:39:33;10.33;;;6.23;;
7021;SDS011;3552;42.664;23.406;2022-12-18T01:42:00;9.80;;;6.50;;
7021;SDS011;3552;42.664;23.406;2022-12-18T01:44:51;11.67;;;6.47;;
7021;SDS011;3552;42.664;23.406;2022-12-18T01:47:21;11.27;;;7.20;;
7021;SDS011;3552;42.664;23.406;2022-12-18T01:49:51;13.13;;;6.93;;
7021;SDS011;3552;42.664;23.406;2022-12-18T01:52:18;13.33;;;7.13;;
7021;SDS011;3552;42.664;23.406;2022-12-18T01:54:47;13.03;;;8.00;;
7021;SDS011;3552;42.664;23.406;2022-12-18T01:57:17;12.77;;;7.73;;
7021;SDS011;3552;42.664;23.406;2022-12-18T01:59:45;12.83;;;8.07;;
7021;SDS011;3552;42.664;23.406;2022-12-18T02:02:16;14.17;;;7.87;;
7021;SDS011;3552;42.664;23.406;2022-12-18T02:04:43;13.00;;;7.97;;
7021;SDS011;3552;42.664;23.406;2022-12-18T02:07:11;13.93;;;7.63;;
7021;SDS011;3552;42.664;23.406;2022-12-18T02:09:44;11.80;;;7.07;;
7021;SDS011;3552;42.664;23.406;2022-12-18T02:12:16;11.17;;;7.07;;
7021;SDS011;3552;42.664;23.406;2022-12-18T02:14:47;10.80;;;6.63;;
7021;SDS011;3552;42.664;23.406;2022-12-18T02:17:22;11.13;;;7.33;;
7021;SDS011;3552;42.664;23.406;2022-12-18T02:19:59;12.50;;;6.43;;
7021;SDS011;3552;42.664;23.406;2022-12-18T02:22:35;10.00;;;6.70;;
7021;SDS011;3552;42.664;23.406;2022-12-18T02:25:19;9.97;;;6.60;;
7021;SDS011;3552;42.664;23.406;2022-12-18T02:27:58;8.97;;;6.47;;
7021;SDS011;3552;42.664;23.406;2022-12-18T02:30:28;10.07;;;6.10;;
7021;SDS011;3552;42.664;23.406;2022-12-18T02:32:59;9.63;;;5.80;;
7021;SDS011;3552;42.664;23.406;2022-12-18T02:35:30;7.93;;;5.27;;
7021;SDS011;3552;42.664;23.406;2022-12-18T02:37:58;9.23;;;6.13;;
7021;SDS011;3552;42.664;23.406;2022-12-18T02:40:27;10.27;;;5.73;;
7021;SDS011;3552;42.664;23.406;2022-12-18T02:42:55;9.13;;;5.70;;
7021;SDS011;3552;42.664;23.406;2022-12-18T02:45:29;11.40;;;6.80;;
7021;SDS011;3552;42.664;23.406;2022-12-18T02:47:57;8.17;;;5.67;;
7021;SDS011;3552;42.664;23.406;2022-12-18T02:50:26;9.80;;;6.73;;
7021;SDS011;3552;42.664;23.406;2022-12-18T02:53:00;9.50;;;6.10;;
7021;SDS011;3552;42.664;23.406;2022-12-18T02:55:40;11.20;;;6.57;;
7021;SDS011;3552;42.664;23.406;2022-12-18T02:58:20;11.03;;;6.97;;
7021;SDS011;3552;42.664;23.406;2022-12-18T03:00:56;12.60;;;7.00;;
7021;SDS011;3552;42.664;23.406;2022-12-18T03:03:28;12.33;;;7.00;;
7021;SDS011;3552;42.664;23.406;2022-12-18T03:06:03;11.27;;;6.93;;
7021;SDS011;3552;42.664;23.406;2022-12-18T03:08:36;12.00;;;7.10;;
7021;SDS011;3552;42.664;23.406;2022-12-18T03:11:06;9.10;;;6.50;;
7021;SDS011;3552;42.664;23.406;2022-12-18T03:13:36;11.40;;;6.50;;
7021;SDS011;3552;42.664;23.406;2022-12-18T03:16:07;11.97;;;7.13;;
7021;SDS011;3552;42.664;23.406;2022-12-18T03:18:37;11.10;;;6.80;;
7021;SDS011;3552;42.664;23.406;2022-12-18T03:21:08;11.13;;;7.30;;
7021;SDS011;3552;42.664;23.406;2022-12-18T03:23:39;12.17;;;7.13;;
7021;SDS011;3552;42.664;23.406;2022-12-18T03:26:10;11.83;;;6.37;;
7021;SDS011;3552;42.664;23.406;2022-12-18T03:28:42;13.77;;;6.70;;
7021;SDS011;3552;42.664;23.406;2022-12-18T03:31:14;10.33;;;6.27;;
7021;SDS011;3552;42.664;23.406;2022-12-18T03:33:43;11.03;;;7.00;;
7021;SDS011;3552;42.664;23.406;2022-12-18T03:36:14;11.53;;;6.53;;
7021;SDS011;3552;42.664;23.406;2022-12-18T03:38:43;11.43;;;7.03;;
7021;SDS011;3552;42.664;23.406;2022-12-18T03:41:12;10.83;;;6.37;;
7021;SDS011;3552;42.664;23.406;2022-12-18T03:43:46;10.60;;;6.40;;
7021;SDS011;3552;42.664;23.406;2022-12-18T03:46:23;14.17;;;8.00;;
7021;SDS011;3552;42.664;23.406;2022-12-18T03:48:57;14.07;;;7.13;;
7021;SDS011;3552;42.664;23.406;2022-12-18T03:51:31;10.80;;;6.83;;
7021;SDS011;3552;42.664;23.406;2022-12-18T03:54:04;13.73;;;6.63;;
7021;SDS011;3552;42.664;23.406;2022-12-18T03:56:35;9.63;;;5.97;;
7021;SDS011;3552;42.664;23.406;2022-12-18T03:59:07;11.03;;;6.10;;
7021;SDS011;3552;42.664;23.406;2022-12-18T04:01:38;10.83;;;6.03;;
7021;SDS011;3552;42.664;23.406;2022-12-18T04:04:10;10.40;;;6.87;;
7021;SDS011;3552;42.664;23.406;2022-12-18T04:06:39;9.90;;;6.27;;
7021;SDS011;3552;42.664;23.406;2022-12-18T04:09:07;9.83;;;6.53;;
7021;SDS011;3552;42.664;23.406;2022-12-18T04:11:36;9.93;;;6.07;;
7021;SDS011;3552;42.664;23.406;2022-12-18T04:14:04;10.03;;;6.73;;
7021;SDS011;3552;42.664;23.406;2022-12-18T04:16:30;11.97;;;7.13;;
7021;SDS011;3552;42.664;23.406;2022-12-18T04:18:59;11.17;;;6.80;;
7021;SDS011;3552;42.664;23.406;2022-12-18T04:21:25;10.63;;;6.40;;
7021;SDS011;3552;42.664;23.406;2022-12-18T04:23:53;10.73;;;6.57;;
7021;SDS011;3552;42.664;23.406;2022-12-18T04:26:25;12.97;;;7.00;;
7021;SDS011;3552;42.664;23.406;2022-12-18T04:28:52;14.17;;;7.87;;
7021;SDS011;3552;42.664;23.406;2022-12-18T04:31:19;11.60;;;6.63;;
7021;SDS011;3552;42.664;23.406;2022-12-18T04:33:46;12.63;;;7.47;;
7021;SDS011;3552;42.664;23.406;2022-12-18T04:36:15;13.03;;;7.73;;
7021;SDS011;3552;42.664;23.406;2022-12-18T04:38:42;11.40;;;7.23;;
7021;SDS011;3552;42.664;23.406;2022-12-18T04:41:10;12.87;;;7.50;;
7021;SDS011;3552;42.664;23.406;2022-12-18T04:43:37;11.00;;;7.10;;
7021;SDS011;3552;42.664;23.406;2022-12-18T04:46:05;12.50;;;7.43;;
7021;SDS011;3552;42.664;23.406;2022-12-18T04:48:34;14.87;;;8.40;;
7021;SDS011;3552;42.664;23.406;2022-12-18T04:51:01;13.43;;;7.43;;
7021;SDS011;3552;42.664;23.406;2022-12-18T04:53:30;13.37;;;7.93;;
7021;SDS011;3552;42.664;23.406;2022-12-18T04:56:05;12.17;;;7.30;;
7021;SDS011;3552;42.664;23.406;2022-12-18T04:58:33;13.93;;;8.03;;
7021;SDS011;3552;42.664;23.406;2022-12-18T05:01:00;12.60;;;7.30;;
7021;SDS011;3552;42.664;23.406;2022-12-18T05:03:28;13.50;;;8.17;;
7021;SDS011;3552;42.664;23.406;2022-12-18T05:05:55;18.83;;;8.43;;
7021;SDS011;3552;42.664;23.406;2022-12-18T05:08:22;16.20;;;7.83;;
7021;SDS011;3552;42.664;23.406;2022-12-18T05:10:51;14.23;;;8.60;;
7021;SDS011;3552;42.664;23.406;2022-12-18T05:13:24;17.40;;;9.73;;
7021;SDS011;3552;42.664;23.406;2022-12-18T05:15:53;16.43;;;9.30;;
7021;SDS011;3552;42.664;23.406;2022-12-18T05:18:20;16.43;;;9.20;;
7021;SDS011;3552;42.664;23.406;2022-12-18T05:20:47;15.33;;;8.83;;
7021;SDS011;3552;42.664;23.406;2022-12-18T05:23:15;15.63;;;9.90;;
7021;SDS011;3552;42.664;23.406;2022-12-18T05:25:42;14.17;;;9.00;;
7021;SDS011;3552;42.664;23.406;2022-12-18T05:28:14;17.23;;;9.47;;
7021;SDS011;3552;42.664;23.406;2022-12-18T05:30:41;16.90;;;9.50;;
7021;SDS011;3552;42.664;23.406;2022-12-18T05:33:08;18.70;;;9.97;;
7021;SDS011;3552;42.664;23.406;2022-12-18T05:35:35;19.23;;;9.80;;
7021;SDS011;3552;42.664;23.406;2022-12-18T05:38:03;16.77;;;9.23;;
7021;SDS011;3552;42.664;23.406;2022-12-18T05:40:30;16.73;;;9.97;;
7021;SDS011;3552;42.664;23.406;2022-12-18T05:42:57;16.53;;;9.17;;
7021;SDS011;3552;42.664;23.406;2022-12-18T05:45:25;18.00;;;9.63;;
7021;SDS011;3552;42.664;23.406;2022-12-18T05:47:52;17.67;;;9.70;;
7021;SDS011;3552;42.664;23.406;2022-12-18T05:50:19;17.93;;;9.20;;
7021;SDS011;3552;42.664;23.406;2022-12-18T05:52:46;16.17;;;9.43;;
7021;SDS011;3552;42.664;23.406;2022-12-18T05:55:13;18.03;;;9.73;;
7021;SDS011;3552;42.664;23.406;2022-12-18T05:57:40;17.80;;;9.63;;
7021;SDS011;3552;42.664;23.406;2022-12-18T06:00:09;17.70;;;9.70;;
7021;SDS011;3552;42.664;23.406;2022-12-18T06:02:39;19.00;;;9.43;;
7021;SDS011;3552;42.664;23.406;2022-12-18T06:05:05;17.47;;;9.80;;
7021;SDS011;3552;42.664;23.406;2022-12-18T06:07:32;16.07;;;9.43;;
7021;SDS011;3552;42.664;23.406;2022-12-18T06:10:00;18.53;;;10.27;;
7021;SDS011;3552;42.664;23.406;2022-12-18T06:12:27;17.60;;;10.03;;
7021;SDS011;3552;42.664;23.406;2022-12-18T06:14:54;22.33;;;10.60;;
7021;SDS011;3552;42.664;23.406;2022-12-18T06:17:21;23.73;;;10.97;;
7021;SDS011;3552;42.664;23.406;2022-12-18T06:19:50;20.77;;;11.70;;
7021;SDS011;3552;42.664;23.406;2022-12-18T06:22:17;19.87;;;10.77;;
7021;SDS011;3552;42.664;23.406;2022-12-18T06:24:45;17.37;;;9.87;;
7021;SDS011;3552;42.664;23.406;2022-12-18T06:27:13;19.87;;;10.77;;
7021;SDS011;3552;42.664;23.406;2022-12-18T06:29:40;20.50;;;10.87;;
7021;SDS011;3552;42.664;23.406;2022-12-18T06:32:07;17.90;;;10.20;;
7021;SDS011;3552;42.664;23.406;2022-12-18T06:34:34;20.13;;;11.10;;
7021;SDS011;3552;42.664;23.406;2022-12-18T06:37:05;18.93;;;10.50;;
7021;SDS011;3552;42.664;23.406;2022-12-18T06:39:32;23.17;;;10.43;;
7021;SDS011;3552;42.664;23.406;2022-12-18T06:42:00;22.97;;;11.70;;
7021;SDS011;3552;42.664;23.406;2022-12-18T06:44:27;22.53;;;10.77;;
7021;SDS011;3552;42.664;23.406;2022-12-18T06:46:54;21.17;;;11.20;;
7021;SDS011;3552;42.664;23.406;2022-12-18T06:49:23;22.23;;;11.03;;
7021;SDS011;3552;42.664;23.406;2022-12-18T06:51:49;18.37;;;9.97;;
7021;SDS011;3552;42.664;23.406;2022-12-18T06:54:19;17.93;;;10.43;;
7021;SDS011;3552;42.664;23.406;2022-12-18T06:56:46;19.13;;;9.97;;
7021;SDS011;3552;42.664;23.406;2022-12-18T06:59:14;18.03;;;10.97;;
7021;SDS011;3552;42.664;23.406;2022-12-18T07:01:46;19.70;;;10.30;;
7021;SDS011;3552;42.664;23.406;2022-12-18T07:04:13;21.33;;;10.53;;
7021;SDS011;3552;42.664;23.406;2022-12-18T07:06:41;18.57;;;10.20;;
7021;SDS011;3552;42.664;23.406;2022-12-18T07:09:12;19.13;;;10.67;;
7021;SDS011;3552;42.664;23.406;2022-12-18T07:11:42;17.87;;;9.93;;
7021;SDS011;3552;42.664;23.406;2022-12-18T07:14:09;20.07;;;10.53;;
7021;SDS011;3552;42.664;23.406;2022-12-18T07:16:36;17.63;;;10.80;;
7021;SDS011;3552;42.664;23.406;2022-12-18T07:19:03;20.67;;;9.90;;
7021;SDS011;3552;42.664;23.406;2022-12-18T07:21:30;18.87;;;10.37;;
7021;SDS011;3552;42.664;23.406;2022-12-18T07:23:57;20.07;;;9.97;;
7021;SDS011;3552;42.664;23.406;2022-12-18T07:26:24;19.63;;;10.70;;
7021;SDS011;3552;42.664;23.406;2022-12-18T07:28:56;18.20;;;11.03;;
7021;SDS011;3552;42.664;23.406;2022-12-18T07:31:24;20.63;;;11.80;;
7021;SDS011;3552;42.664;23.406;2022-12-18T07:33:52;20.60;;;11.13;;
7021;SDS011;3552;42.664;23.406;2022-12-18T07:36:19;20.43;;;11.00;;
7021;SDS011;3552;42.664;23.406;2022-12-18T07:38:48;17.50;;;10.10;;
7021;SDS011;3552;42.664;23.406;2022-12-18T07:41:16;22.63;;;12.10;;
7021;SDS011;3552;42.664;23.406;2022-12-18T07:43:47;20.03;;;10.50;;
7021;SDS011;3552;42.664;23.406;2022-12-18T07:46:16;25.37;;;12.40;;
7021;SDS011;3552;42.664;23.406;2022-12-18T07:48:43;19.80;;;11.10;;
7021;SDS011;3552;42.664;23.406;2022-12-18T07:51:11;23.47;;;12.17;;
7021;SDS011;3552;42.664;23.406;2022-12-18T07:53:37;21.73;;;11.23;;
7021;SDS011;3552;42.664;23.406;2022-12-18T07:56:06;21.67;;;12.00;;
7021;SDS011;3552;42.664;23.406;2022-12-18T07:58:34;19.60;;;11.13;;
7021;SDS011;3552;42.664;23.406;2022-12-18T08:01:02;22.83;;;13.07;;
7021;SDS011;3552;42.664;23.406;2022-12-18T08:03:32;21.67;;;12.10;;
7021;SDS011;3552;42.664;23.406;2022-12-18T08:06:00;25.47;;;13.33;;
7021;SDS011;3552;42.664;23.406;2022-12-18T08:08:27;25.50;;;13.13;;
7021;SDS011;3552;42.664;23.406;2022-12-18T08:10:56;23.77;;;12.33;;
7021;SDS011;3552;42.664;23.406;2022-12-18T08:13:23;27.10;;;13.43;;
7021;SDS011;3552;42.664;23.406;2022-12-18T08:16:01;23.67;;;12.50;;
7021;SDS011;3552;42.664;23.406;2022-12-18T08:18:33;21.27;;;12.73;;
7021;SDS011;3552;42.664;23.406;2022-12-18T08:21:07;26.27;;;14.13;;
7021;SDS011;3552;42.664;23.406;2022-12-18T08:23:35;24.63;;;13.13;;
7021;SDS011;3552;42.664;23.406;2022-12-18T08:26:04;24.47;;;12.80;;
7021;SDS011;3552;42.664;23.406;2022-12-18T08:28:32;24.33;;;13.50;;
7021;SDS011;3552;42.664;23.406;2022-12-18T08:31:00;23.83;;;12.80;;
7021;SDS011;3552;42.664;23.406;2022-12-18T08:33:29;27.90;;;13.13;;
7021;SDS011;3552;42.664;23.406;2022-12-18T08:35:59;25.53;;;13.60;;
7021;SDS011;3552;42.664;23.406;2022-12-18T08:38:28;28.83;;;14.93;;
7021;SDS011;3552;42.664;23.406;2022-12-18T08:40:58;24.67;;;12.97;;
7021;SDS011;3552;42.664;23.406;2022-12-18T08:43:28;26.07;;;13.77;;
7021;SDS011;3552;42.664;23.406;2022-12-18T08:46:12;26.23;;;12.97;;
7021;SDS011;3552;42.664;23.406;2022-12-18T08:48:39;24.90;;;12.90;;
7021;SDS011;3552;42.664;23.406;2022-12-18T08:51:09;21.93;;;12.77;;
7021;SDS011;3552;42.664;23.406;2022-12-18T08:53:36;24.53;;;13.47;;
7021;SDS011;3552;42.664;23.406;2022-12-18T08:56:05;23.67;;;13.33;;
7021;SDS011;3552;42.664;23.406;2022-12-18T08:58:32;25.80;;;14.53;;
7021;SDS011;3552;42.664;23.406;2022-12-18T09:01:01;23.73;;;13.13;;
7021;SDS011;3552;42.664;23.406;2022-12-18T09:03:29;25.53;;;13.90;;
7021;SDS011;3552;42.664;23.406;2022-12-18T09:05:56;24.13;;;13.00;;
7021;SDS011;3552;42.664;23.406;2022-12-18T09:08:25;22.67;;;12.50;;
7021;SDS011;3552;42.664;23.406;2022-12-18T09:10:52;23.83;;;11.77;;
7021;SDS011;3552;42.664;23.406;2022-12-18T09:13:19;26.30;;;12.77;;
7021;SDS011;3552;42.664;23.406;2022-12-18T09:15:47;26.33;;;13.97;;
7021;SDS011;3552;42.664;23.406;2022-12-18T09:18:18;23.43;;;12.80;;
7021;SDS011;3552;42.664;23.406;2022-12-18T09:20:46;21.40;;;11.90;;
7021;SDS011;3552;42.664;23.406;2022-12-18T09:23:15;24.13;;;12.63;;
7021;SDS011;3552;42.664;23.406;2022-12-18T09:25:43;25.33;;;12.97;;
7021;SDS011;3552;42.664;23.406;2022-12-18T09:28:11;23.23;;;12.00;;
7021;SDS011;3552;42.664;23.406;2022-12-18T09:30:43;20.13;;;10.53;;
7021;SDS011;3552;42.664;23.406;2022-12-18T09:33:11;21.03;;;11.40;;
7021;SDS011;3552;42.664;23.406;2022-12-18T09:35:38;20.63;;;11.70;;
7021;SDS011;3552;42.664;23.406;2022-12-18T09:38:06;20.47;;;10.63;;
7021;SDS011;3552;42.664;23.406;2022-12-18T09:40:35;20.97;;;11.37;;
7021;SDS011;3552;42.664;23.406;2022-12-18T09:43:09;20.53;;;11.07;;
7021;SDS011;3552;42.664;23.406;2022-12-18T09:45:44;19.80;;;11.83;;
7021;SDS011;3552;42.664;23.406;2022-12-18T09:48:17;21.87;;;12.03;;
7021;SDS011;3552;42.664;23.406;2022-12-18T09:50:50;21.00;;;10.77;;
7021;SDS011;3552;42.664;23.406;2022-12-18T09:53:31;23.60;;;11.57;;
7021;SDS011;3552;42.664;23.406;2022-12-18T09:56:06;23.33;;;11.97;;
7021;SDS011;3552;42.664;23.406;2022-12-18T09:58:47;24.73;;;11.63;;
7021;SDS011;3552;42.664;23.406;2022-12-18T10:01:45;20.53;;;11.87;;
7021;SDS011;3552;42.664;23.406;2022-12-18T10:04:14;21.97;;;11.33;;
7021;SDS011;3552;42.664;23.406;2022-12-18T10:06:43;21.07;;;11.57;;
7021;SDS011;3552;42.664;23.406;2022-12-18T10:09:16;22.20;;;11.13;;
7021;SDS011;3552;42.664;23.406;2022-12-18T10:11:53;21.57;;;11.63;;
7021;SDS011;3552;42.664;23.406;2022-12-18T10:14:29;21.60;;;11.27;;
7021;SDS011;3552;42.664;23.406;2022-12-18T10:17:03;22.33;;;10.77;;
7021;SDS011;3552;42.664;23.406;2022-12-18T10:19:43;21.47;;;10.73;;
7021;SDS011;3552;42.664;23.406;2022-12-18T10:22:20;17.20;;;9.83;;
7021;SDS011;3552;42.664;23.406;2022-12-18T10:24:59;30.60;;;14.87;;
7021;SDS011;3552;42.664;23.406;2022-12-18T10:27:35;19.40;;;10.93;;
7021;SDS011;3552;42.664;23.406;2022-12-18T10:30:07;22.33;;;11.23;;
7021;SDS011;3552;42.664;23.406;2022-12-18T10:32:41;20.23;;;10.93;;
7021;SDS011;3552;42.664;23.406;2022-12-18T10:35:11;21.33;;;10.17;;
7021;SDS011;3552;42.664;23.406;2022-12-18T10:40:27;23.73;;;11.67;;
7021;SDS011;3552;42.664;23.406;2022-12-18T10:43:03;24.77;;;11.50;;
7021;SDS011;3552;42.664;23.406;2022-12-18T10:45:34;28.87;;;11.73;;
7021;SDS011;3552;42.664;23.406;2022-12-18T10:48:02;24.50;;;12.10;;
7021;SDS011;3552;42.664;23.406;2022-12-18T10:50:31;19.10;;;10.33;;
7021;SDS011;3552;42.664;23.406;2022-12-18T10:53:00;19.40;;;10.73;;
7021;SDS011;3552;42.664;23.406;2022-12-18T10:55:31;20.67;;;10.57;;
7021;SDS011;3552;42.664;23.406;2022-12-18T10:58:13;19.37;;;10.43;;
7021;SDS011;3552;42.664;23.406;2022-12-18T11:03:37;26.33;;;13.50;;
7021;SDS011;3552;42.664;23.406;2022-12-18T11:06:06;24.20;;;12.30;;
7021;SDS011;3552;42.664;23.406;2022-12-18T11:08:35;21.73;;;11.47;;
7021;SDS011;3552;42.664;23.406;2022-12-18T11:11:06;21.50;;;11.27;;
7021;SDS011;3552;42.664;23.406;2022-12-18T11:13:42;23.10;;;11.77;;
7021;SDS011;3552;42.664;23.406;2022-12-18T11:16:24;22.97;;;11.83;;
7021;SDS011;3552;42.664;23.406;2022-12-18T11:18:51;24.07;;;11.83;;
7021;SDS011;3552;42.664;23.406;2022-12-18T11:21:18;24.70;;;12.70;;
7021;SDS011;3552;42.664;23.406;2022-12-18T11:23:47;23.13;;;11.37;;
7021;SDS011;3552;42.664;23.406;2022-12-18T11:26:16;20.73;;;11.30;;
7021;SDS011;3552;42.664;23.406;2022-12-18T11:28:44;23.53;;;11.23;;
7021;SDS011;3552;42.664;23.406;2022-12-18T11:31:18;21.53;;;10.67;;
7021;SDS011;3552;42.664;23.406;2022-12-18T11:33:56;19.87;;;10.80;;
7021;SDS011;3552;42.664;23.406;2022-12-18T11:36:28;21.93;;;11.60;;
7021;SDS011;3552;42.664;23.406;2022-12-18T11:38:59;21.73;;;11.77;;
7021;SDS011;3552;42.664;23.406;2022-12-18T11:41:37;22.30;;;11.87;;
7021;SDS011;3552;42.664;23.406;2022-12-18T11:44:28;27.57;;;12.20;;
7021;SDS011;3552;42.664;23.406;2022-12-18T11:47:00;20.53;;;12.13;;
7021;SDS011;3552;42.664;23.406;2022-12-18T11:49:34;21.17;;;11.97;;
7021;SDS011;3552;42.664;23.406;2022-12-18T11:52:04;20.20;;;11.80;;
7021;SDS011;3552;42.664;23.406;2022-12-18T11:54:44;22.53;;;11.57;;
7021;SDS011;3552;42.664;23.406;2022-12-18T11:57:14;23.10;;;12.30;;
7021;SDS011;3552;42.664;23.406;2022-12-18T11:59:54;22.20;;;12.17;;
7021;SDS011;3552;42.664;23.406;2022-12-18T12:02:33;22.07;;;11.97;;
7021;SDS011;3552;42.664;23.406;2022-12-18T12:05:18;22.83;;;11.97;;
7021;SDS011;3552;42.664;23.406;2022-12-18T12:07:55;22.43;;;11.33;;
7021;SDS011;3552;42.664;23.406;2022-12-18T12:10:33;25.17;;;12.07;;
7021;SDS011;3552;42.664;23.406;2022-12-18T12:13:13;23.33;;;12.13;;
7021;SDS011;3552;42.664;23.406;2022-12-18T12:15:55;20.37;;;11.23;;
7021;SDS011;3552;42.664;23.406;2022-12-18T12:18:35;21.23;;;11.63;;
7021;SDS011;3552;42.664;23.406;2022-12-18T12:21:13;21.53;;;10.93;;
7021;SDS011;3552;42.664;23.406;2022-12-18T12:23:48;23.20;;;12.43;;
7021;SDS011;3552;42.664;23.406;2022-12-18T12:26:22;22.73;;;12.07;;
7021;SDS011;3552;42.664;23.406;2022-12-18T12:29:01;23.17;;;12.13;;
7021;SDS011;3552;42.664;23.406;2022-12-18T12:31:42;23.53;;;11.17;;
7021;SDS011;3552;42.664;23.406;2022-12-18T12:34:22;21.23;;;12.10;;
7021;SDS011;3552;42.664;23.406;2022-12-18T12:37:01;23.77;;;12.53;;
7021;SDS011;3552;42.664;23.406;2022-12-18T12:39:36;23.13;;;11.70;;
7021;SDS011;3552;42.664;23.406;2022-12-18T12:42:10;23.87;;;13.30;;
7021;SDS011;3552;42.664;23.406;2022-12-18T12:44:58;24.57;;;12.23;;
7021;SDS011;3552;42.664;23.406;2022-12-18T12:47:32;26.73;;;12.00;;
7021;SDS011;3552;42.664;23.406;2022-12-18T12:50:05;24.87;;;12.13;;
7021;SDS011;3552;42.664;23.406;2022-12-18T12:52:42;20.23;;;11.10;;
7021;SDS011;3552;42.664;23.406;2022-12-18T12:55:14;24.30;;;13.37;;
7021;SDS011;3552;42.664;23.406;2022-12-18T12:57:45;20.67;;;12.10;;
7021;SDS011;3552;42.664;23.406;2022-12-18T13:00:17;22.77;;;12.60;;
7021;SDS011;3552;42.664;23.406;2022-12-18T13:02:51;20.77;;;11.63;;
7021;SDS011;3552;42.664;23.406;2022-12-18T13:05:26;24.07;;;12.50;;
7021;SDS011;3552;42.664;23.406;2022-12-18T13:08:00;20.33;;;11.37;;
7021;SDS011;3552;42.664;23.406;2022-12-18T13:10:34;22.13;;;12.10;;
7021;SDS011;3552;42.664;23.406;2022-12-18T13:13:04;19.90;;;10.93;;
7021;SDS011;3552;42.664;23.406;2022-12-18T13:15:41;24.93;;;12.27;;
7021;SDS011;3552;42.664;23.406;2022-12-18T13:18:18;20.90;;;12.00;;
7021;SDS011;3552;42.664;23.406;2022-12-18T13:20:49;24.27;;;11.73;;
7021;SDS011;3552;42.664;23.406;2022-12-18T13:26:29;22.57;;;12.03;;
7021;SDS011;3552;42.664;23.406;2022-12-18T13:28:58;22.83;;;12.00;;
7021;SDS011;3552;42.664;23.406;2022-12-18T13:34:33;23.43;;;11.87;;
7021;SDS011;3552;42.664;23.406;2022-12-18T13:43:26;23.27;;;12.23;;
7021;SDS011;3552;42.664;23.406;2022-12-18T13:48:56;22.93;;;13.87;;
7021;SDS011;3552;42.664;23.406;2022-12-18T13:51:31;23.70;;;12.70;;
7021;SDS011;3552;42.664;23.406;2022-12-18T13:54:00;26.03;;;13.60;;
7021;SDS011;3552;42.664;23.406;2022-12-18T13:56:32;26.13;;;13.63;;
7021;SDS011;3552;42.664;23.406;2022-12-18T13:59:09;25.70;;;13.87;;
7021;SDS011;3552;42.664;23.406;2022-12-18T14:01:41;26.10;;;14.47;;
7021;SDS011;3552;42.664;23.406;2022-12-18T14:04:28;26.67;;;13.23;;
7021;SDS011;3552;42.664;23.406;2022-12-18T14:07:02;28.43;;;14.40;;
7021;SDS011;3552;42.664;23.406;2022-12-18T14:09:40;25.20;;;13.53;;
7021;SDS011;3552;42.664;23.406;2022-12-18T14:12:14;22.97;;;12.43;;
7021;SDS011;3552;42.664;23.406;2022-12-18T14:15:16;19.83;;;11.40;;
7021;SDS011;3552;42.664;23.406;2022-12-18T14:17:51;25.20;;;11.77;;
7021;SDS011;3552;42.664;23.406;2022-12-18T14:20:20;26.03;;;12.87;;
7021;SDS011;3552;42.664;23.406;2022-12-18T14:22:48;21.30;;;11.17;;
7021;SDS011;3552;42.664;23.406;2022-12-18T14:25:18;22.53;;;11.80;;
7021;SDS011;3552;42.664;23.406;2022-12-18T14:27:50;22.83;;;11.60;;
7021;SDS011;3552;42.664;23.406;2022-12-18T14:30:30;18.87;;;10.90;;
7021;SDS011;3552;42.664;23.406;2022-12-18T14:32:59;22.90;;;10.60;;
7021;SDS011;3552;42.664;23.406;2022-12-18T14:35:30;20.43;;;11.50;;
7021;SDS011;3552;42.664;23.406;2022-12-18T14:40:52;22.10;;;11.40;;
7021;SDS011;3552;42.664;23.406;2022-12-18T14:43:24;20.70;;;11.87;;
7021;SDS011;3552;42.664;23.406;2022-12-18T14:45:53;23.40;;;12.30;;
7021;SDS011;3552;42.664;23.406;2022-12-18T14:48:21;21.77;;;10.80;;
7021;SDS011;3552;42.664;23.406;2022-12-18T14:51:00;20.33;;;11.00;;
7021;SDS011;3552;42.664;23.406;2022-12-18T14:53:36;21.33;;;10.97;;
7021;SDS011;3552;42.664;23.406;2022-12-18T14:56:16;18.90;;;10.23;;
7021;SDS011;3552;42.664;23.406;2022-12-18T14:58:45;21.43;;;12.43;;
7021;SDS011;3552;42.664;23.406;2022-12-18T15:01:23;20.30;;;11.07;;
7021;SDS011;3552;42.664;23.406;2022-12-18T15:03:52;19.40;;;10.03;;
7021;SDS011;3552;42.664;23.406;2022-12-18T15:06:27;21.33;;;10.43;;
7021;SDS011;3552;42.664;23.406;2022-12-18T15:08:59;24.33;;;11.43;;
7021;SDS011;3552;42.664;23.406;2022-12-18T15:11:32;17.83;;;9.77;;
7021;SDS011;3552;42.664;23.406;2022-12-18T15:17:03;19.00;;;10.10;;
7021;SDS011;3552;42.664;23.406;2022-12-18T15:19:34;22.53;;;10.03;;
7021;SDS011;3552;42.664;23.406;2022-12-18T15:22:04;18.23;;;9.23;;
7021;SDS011;3552;42.664;23.406;2022-12-18T15:24:47;20.43;;;10.80;;
7021;SDS011;3552;42.664;23.406;2022-12-18T15:27:22;18.03;;;10.10;;
7021;SDS011;3552;42.664;23.406;2022-12-18T15:32:47;16.63;;;9.20;;